sensor_id;sensor_type;location;lat;lon;timestamp;pressure;altitude;pressure_sealevel;temperature;humidity
65800;BME280;52544;48.116;11.660;2023-04-01T00:01:22;94437.50;;;7.98;82.93
65800;BME280;52544;48.116;11.660;2023-04-01T00:03:47;94438.38;;;7.89;83.81
65800;BME280;52544;48.116;11.660;2023-04-01T00:06:15;94431.84;;;7.93;83.77
65800;BME280;52544;48.116;11.660;2023-04-01T00:08:41;94430.06;;;7.84;84.50
65800;BME280;52544;48.116;11.660;2023-04-01T00:11:07;94421.50;;;7.82;84.83
65800;BME280;52544;48.116;11.660;2023-04-01T00:13:32;94424.53;;;7.87;84.74
65800;BME280;52544;48.116;11.660;2023-04-01T00:15:58;94419.25;;;7.87;84.86
65800;BME280;52544;48.116;11.660;2023-04-01T00:18:23;94420.66;;;7.81;84.71
65800;BME280;52544;48.116;11.660;2023-04-01T00:20:50;94410.09;;;7.81;84.66
65800;BME280;52544;48.116;11.660;2023-04-01T00:23:16;94412.22;;;7.78;85.02
65800;BME280;52544;48.116;11.660;2023-04-01T00:25:43;94399.06;;;7.78;85.01
65800;BME280;52544;48.116;11.660;2023-04-01T00:28:09;94409.59;;;7.78;85.09
65800;BME280;52544;48.116;11.660;2023-04-01T00:30:35;94392.09;;;7.76;85.07
65800;BME280;52544;48.116;11.660;2023-04-01T00:33:01;94396.25;;;7.79;84.81
65800;BME280;52544;48.116;11.660;2023-04-01T00:35:27;94389.22;;;7.70;84.94
65800;BME280;52544;48.116;11.660;2023-04-01T00:37:52;94391.56;;;7.73;85.18
65800;BME280;52544;48.116;11.660;2023-04-01T00:40:41;94399.44;;;7.83;84.41
65800;BME280;52544;48.116;11.660;2023-04-01T00:43:25;94396.56;;;7.66;84.98
65800;BME280;52544;48.116;11.660;2023-04-01T00:45:51;94401.84;;;7.66;84.94
65800;BME280;52544;48.116;11.660;2023-04-01T00:48:19;94396.56;;;7.66;85.47
65800;BME280;52544;48.116;11.660;2023-04-01T00:50:51;94399.63;;;7.62;85.68
65800;BME280;52544;48.116;11.660;2023-04-01T00:53:18;94402.69;;;7.57;85.66
65800;BME280;52544;48.116;11.660;2023-04-01T00:55:50;94393.53;;;7.61;85.71
65800;BME280;52544;48.116;11.660;2023-04-01T00:58:18;94401.03;;;7.56;86.45
65800;BME280;52544;48.116;11.660;2023-04-01T01:00:47;94400.75;;;7.59;86.26
65800;BME280;52544;48.116;11.660;2023-04-01T01:03:13;94396.31;;;7.60;86.58
65800;BME280;52544;48.116;11.660;2023-04-01T01:06:09;94397.13;;;7.60;86.41
65800;BME280;52544;48.116;11.660;2023-04-01T01:11:11;94400.19;;;7.65;86.11
65800;BME280;52544;48.116;11.660;2023-04-01T01:13:50;94394.66;;;7.59;86.37
65800;BME280;52544;48.116;11.660;2023-04-01T01:16:26;94392.97;;;7.67;85.50
65800;BME280;52544;48.116;11.660;2023-04-01T01:27:16;94402.38;;;7.80;84.42
65800;BME280;52544;48.116;11.660;2023-04-01T01:30:16;94397.66;;;7.83;84.02
65800;BME280;52544;48.116;11.660;2023-04-01T01:33:15;94393.47;;;7.81;84.21
65800;BME280;52544;48.116;11.660;2023-04-01T01:35:56;94402.22;;;7.81;84.23
65800;BME280;52544;48.116;11.660;2023-04-01T01:38:24;94390.84;;;7.81;84.20
65800;BME280;52544;48.116;11.660;2023-04-01T01:40:52;94391.41;;;7.84;83.60
65800;BME280;52544;48.116;11.660;2023-04-01T01:43:22;94401.78;;;7.86;83.64
65800;BME280;52544;48.116;11.660;2023-04-01T01:45:52;94387.22;;;7.91;83.28
65800;BME280;52544;48.116;11.660;2023-04-01T01:48:20;94385.97;;;7.86;83.50
65800;BME280;52544;48.116;11.660;2023-04-01T01:50:46;94392.09;;;7.86;83.50
65800;BME280;52544;48.116;11.660;2023-04-01T01:53:14;94386.78;;;7.96;83.11
65800;BME280;52544;48.116;11.660;2023-04-01T01:55:45;94382.81;;;7.82;83.84
65800;BME280;52544;48.116;11.660;2023-04-01T01:58:19;94386.28;;;7.83;83.80
65800;BME280;52544;48.116;11.660;2023-04-01T02:00:54;94382.94;;;7.81;83.82
65800;BME280;52544;48.116;11.660;2023-04-01T02:03:23;94382.94;;;7.81;84.10
65800;BME280;52544;48.116;11.660;2023-04-01T02:05:51;94389.19;;;7.80;84.62
65800;BME280;52544;48.116;11.660;2023-04-01T02:08:23;94383.06;;;7.89;83.94
65800;BME280;52544;48.116;11.660;2023-04-01T02:11:05;94392.94;;;7.87;83.67
65800;BME280;52544;48.116;11.660;2023-04-01T02:13:42;94392.94;;;7.87;83.72
65800;BME280;52544;48.116;11.660;2023-04-01T02:16:16;94399.84;;;7.88;83.59
65800;BME280;52544;48.116;11.660;2023-04-01T02:18:45;94409.78;;;7.94;83.00
65800;BME280;52544;48.116;11.660;2023-04-01T02:21:14;94409.00;;;7.84;83.37
65800;BME280;52544;48.116;11.660;2023-04-01T02:23:40;94407.03;;;7.86;82.62
65800;BME280;52544;48.116;11.660;2023-04-01T02:26:07;94405.38;;;7.85;82.93
65800;BME280;52544;48.116;11.660;2023-04-01T02:28:36;94403.75;;;7.84;82.62
65800;BME280;52544;48.116;11.660;2023-04-01T02:31:03;94402.47;;;7.88;82.35
65800;BME280;52544;48.116;11.660;2023-04-01T02:33:30;94416.91;;;7.84;82.35
65800;BME280;52544;48.116;11.660;2023-04-01T02:35:56;94411.09;;;7.80;82.20
65800;BME280;52544;48.116;11.660;2023-04-01T02:38:22;94410.94;;;7.91;81.48
65800;BME280;52544;48.116;11.660;2023-04-01T02:40:52;94396.50;;;7.86;81.18
65800;BME280;52544;48.116;11.660;2023-04-01T02:43:22;94400.41;;;7.91;81.42
65800;BME280;52544;48.116;11.660;2023-04-01T02:45:48;94395.84;;;7.84;81.48
65800;BME280;52544;48.116;11.660;2023-04-01T02:48:13;94397.22;;;7.88;80.98
65800;BME280;52544;48.116;11.660;2023-04-01T02:50:39;94403.56;;;7.95;81.00
65800;BME280;52544;48.116;11.660;2023-04-01T02:53:05;94399.03;;;7.87;81.18
65800;BME280;52544;48.116;11.660;2023-04-01T02:55:32;94411.53;;;7.75;81.59
65800;BME280;52544;48.116;11.660;2023-04-01T02:57:58;94414.56;;;7.81;81.81
65800;BME280;52544;48.116;11.660;2023-04-01T03:00:23;94408.59;;;7.79;81.98
65800;BME280;52544;48.116;11.660;2023-04-01T03:02:49;94417.78;;;7.74;82.13
65800;BME280;52544;48.116;11.660;2023-04-01T03:05:15;94418.44;;;7.76;81.76
65800;BME280;52544;48.116;11.660;2023-04-01T03:07:40;94414.00;;;7.77;81.49
65800;BME280;52544;48.116;11.660;2023-04-01T03:10:06;94422.59;;;7.79;81.56
65800;BME280;52544;48.116;11.660;2023-04-01T03:12:32;94422.31;;;7.82;81.29
65800;BME280;52544;48.116;11.660;2023-04-01T03:14:57;94416.22;;;7.82;81.31
65800;BME280;52544;48.116;11.660;2023-04-01T03:17:23;94412.63;;;7.83;80.85
65800;BME280;52544;48.116;11.660;2023-04-01T03:19:48;94427.16;;;7.77;81.50
65800;BME280;52544;48.116;11.660;2023-04-01T03:22:14;94421.06;;;7.76;81.53
65800;BME280;52544;48.116;11.660;2023-04-01T03:24:40;94424.28;;;7.70;81.82
65800;BME280;52544;48.116;11.660;2023-04-01T03:27:05;94421.25;;;7.65;81.82
65800;BME280;52544;48.116;11.660;2023-04-01T03:29:30;94426.50;;;7.75;81.66
65800;BME280;52544;48.116;11.660;2023-04-01T03:31:56;94433.44;;;7.66;82.13
65800;BME280;52544;48.116;11.660;2023-04-01T03:34:23;94430.81;;;7.66;82.06
65800;BME280;52544;48.116;11.660;2023-04-01T03:36:49;94442.59;;;7.62;81.79
65800;BME280;52544;48.116;11.660;2023-04-01T03:39:16;94408.50;;;7.61;81.95
65800;BME280;52544;48.116;11.660;2023-04-01T03:41:44;94418.50;;;7.57;81.97
65800;BME280;52544;48.116;11.660;2023-04-01T03:44:11;94434.56;;;7.54;82.18
65800;BME280;52544;48.116;11.660;2023-04-01T03:46:36;94438.03;;;7.55;82.12
65800;BME280;52544;48.116;11.660;2023-04-01T03:49:02;94439.97;;;7.33;83.11
65800;BME280;52544;48.116;11.660;2023-04-01T03:51:28;94453.13;;;7.43;83.15
65800;BME280;52544;48.116;11.660;2023-04-01T03:53:53;94452.19;;;7.44;82.79
65800;BME280;52544;48.116;11.660;2023-04-01T03:56:18;94451.59;;;7.50;82.31
65800;BME280;52544;48.116;11.660;2023-04-01T03:58:44;94461.16;;;7.51;82.35
65800;BME280;52544;48.116;11.660;2023-04-01T04:01:14;94453.13;;;7.43;82.88
65800;BME280;52544;48.116;11.660;2023-04-01T04:03:39;94449.56;;;7.44;83.26
65800;BME280;52544;48.116;11.660;2023-04-01T04:06:05;94442.91;;;7.40;83.35
65800;BME280;52544;48.116;11.660;2023-04-01T04:08:30;94452.31;;;7.33;84.39
65800;BME280;52544;48.116;11.660;2023-04-01T04:10:56;94452.31;;;7.33;84.18
65800;BME280;52544;48.116;11.660;2023-04-01T04:13:21;94448.00;;;7.41;84.02
65800;BME280;52544;48.116;11.660;2023-04-01T04:15:47;94441.50;;;7.36;84.04
65800;BME280;52544;48.116;11.660;2023-04-01T04:18:12;94443.03;;;7.29;84.54
65800;BME280;52544;48.116;11.660;2023-04-01T04:20:44;94446.22;;;7.32;84.28
65800;BME280;52544;48.116;11.660;2023-04-01T04:23:10;94447.59;;;7.36;83.89
65800;BME280;52544;48.116;11.660;2023-04-01T04:25:36;94456.91;;;7.31;84.57
65800;BME280;52544;48.116;11.660;2023-04-01T04:28:01;94453.41;;;7.30;85.18
65800;BME280;52544;48.116;11.660;2023-04-01T04:30:27;94453.97;;;7.34;84.83
65800;BME280;52544;48.116;11.660;2023-04-01T04:32:52;94448.03;;;7.32;84.64
65800;BME280;52544;48.116;11.660;2023-04-01T04:35:17;94453.13;;;7.33;85.35
65800;BME280;52544;48.116;11.660;2023-04-01T04:37:43;94453.97;;;7.34;85.44
65800;BME280;52544;48.116;11.660;2023-04-01T04:40:08;94465.06;;;7.28;85.81
65800;BME280;52544;48.116;11.660;2023-04-01T04:42:34;94469.06;;;7.32;85.59
65800;BME280;52544;48.116;11.660;2023-04-01T04:44:59;94469.91;;;7.32;85.60
65800;BME280;52544;48.116;11.660;2023-04-01T04:47:24;94469.19;;;7.30;85.46
65800;BME280;52544;48.116;11.660;2023-04-01T04:49:50;94476.97;;;7.32;85.91
65800;BME280;52544;48.116;11.660;2023-04-01T04:52:15;94476.16;;;7.31;85.79
65800;BME280;52544;48.116;11.660;2023-04-01T04:54:41;94474.91;;;7.35;85.84
65800;BME280;52544;48.116;11.660;2023-04-01T04:57:06;94470.59;;;7.34;85.45
65800;BME280;52544;48.116;11.660;2023-04-01T04:59:31;94465.34;;;7.44;85.15
65800;BME280;52544;48.116;11.660;2023-04-01T05:01:57;94474.47;;;7.49;84.37
65800;BME280;52544;48.116;11.660;2023-04-01T05:04:22;94476.28;;;7.49;84.88
65800;BME280;52544;48.116;11.660;2023-04-01T05:06:48;94474.06;;;7.44;85.18
65800;BME280;52544;48.116;11.660;2023-04-01T05:09:13;94480.72;;;7.48;84.70
65800;BME280;52544;48.116;11.660;2023-04-01T05:11:39;94476.13;;;7.50;84.78
65800;BME280;52544;48.116;11.660;2023-04-01T05:14:05;94468.38;;;7.49;84.65
65800;BME280;52544;48.116;11.660;2023-04-01T05:16:30;94471.69;;;7.51;84.37
65800;BME280;52544;48.116;11.660;2023-04-01T05:18:56;94464.75;;;7.60;83.80
65800;BME280;52544;48.116;11.660;2023-04-01T05:21:21;94470.84;;;7.60;83.09
65800;BME280;52544;48.116;11.660;2023-04-01T05:23:47;94465.31;;;7.63;82.49
65800;BME280;52544;48.116;11.660;2023-04-01T05:26:14;94466.41;;;7.70;81.61
65800;BME280;52544;48.116;11.660;2023-04-01T05:28:40;94476.81;;;7.72;81.49
65800;BME280;52544;48.116;11.660;2023-04-01T05:31:06;94466.28;;;7.72;81.86
65800;BME280;52544;48.116;11.660;2023-04-01T05:33:32;94471.25;;;7.75;80.93
65800;BME280;52544;48.116;11.660;2023-04-01T05:36:18;94472.78;;;7.78;79.64
65800;BME280;52544;48.116;11.660;2023-04-01T05:38:43;94472.78;;;7.78;80.21
65800;BME280;52544;48.116;11.660;2023-04-01T05:41:10;94479.56;;;7.80;79.17
65800;BME280;52544;48.116;11.660;2023-04-01T05:43:37;94480.78;;;7.86;78.99
65800;BME280;52544;48.116;11.660;2023-04-01T05:46:02;94470.25;;;7.86;78.68
65800;BME280;52544;48.116;11.660;2023-04-01T05:48:28;94474.19;;;7.82;78.88
65800;BME280;52544;48.116;11.660;2023-04-01T05:50:53;94479.41;;;7.91;78.38
65800;BME280;52544;48.116;11.660;2023-04-01T05:53:18;94474.28;;;7.90;78.33
65800;BME280;52544;48.116;11.660;2023-04-01T05:55:44;94471.75;;;7.98;77.59
65800;BME280;52544;48.116;11.660;2023-04-01T05:58:09;94473.56;;;7.97;77.64
65800;BME280;52544;48.116;11.660;2023-04-01T06:00:35;94474.69;;;8.05;76.52
65800;BME280;52544;48.116;11.660;2023-04-01T06:03:00;94477.69;;;8.10;76.85
65800;BME280;52544;48.116;11.660;2023-04-01T06:05:30;94472.00;;;8.14;76.58
65800;BME280;52544;48.116;11.660;2023-04-01T06:08:06;94476.28;;;8.15;76.04
65800;BME280;52544;48.116;11.660;2023-04-01T06:27:04;94473.91;;;8.41;73.37
65800;BME280;52544;48.116;11.660;2023-04-01T06:29:48;94485.81;;;8.45;72.88
65800;BME280;52544;48.116;11.660;2023-04-01T06:32:26;94474.41;;;8.55;71.97
65800;BME280;52544;48.116;11.660;2023-04-01T06:40:26;94475.88;;;8.67;70.90
65800;BME280;52544;48.116;11.660;2023-04-01T06:43:18;94485.00;;;8.72;70.73
65800;BME280;52544;48.116;11.660;2023-04-01T06:48:33;94483.00;;;8.84;69.67
65800;BME280;52544;48.116;11.660;2023-04-01T06:51:31;94485.47;;;8.86;69.56
65800;BME280;52544;48.116;11.660;2023-04-01T06:54:20;94481.88;;;8.87;69.23
65800;BME280;52544;48.116;11.660;2023-04-01T06:56:49;94473.56;;;8.82;69.46
65800;BME280;52544;48.116;11.660;2023-04-01T06:59:18;94476.75;;;8.85;69.22
65800;BME280;52544;48.116;11.660;2023-04-01T07:01:49;94481.28;;;8.93;68.70
65800;BME280;52544;48.116;11.660;2023-04-01T07:04:29;94483.03;;;9.02;67.62
65800;BME280;52544;48.116;11.660;2023-04-01T07:07:06;94471.50;;;9.03;67.53
65800;BME280;52544;48.116;11.660;2023-04-01T07:09:39;94479.25;;;9.05;67.55
65800;BME280;52544;48.116;11.660;2023-04-01T07:15:06;94481.88;;;9.32;66.34
65800;BME280;52544;48.116;11.660;2023-04-01T07:17:39;94488.03;;;9.23;67.15
65800;BME280;52544;48.116;11.660;2023-04-01T07:20:29;94485.53;;;9.21;68.08
65800;BME280;52544;48.116;11.660;2023-04-01T07:23:02;94480.22;;;9.31;67.60
65800;BME280;52544;48.116;11.660;2023-04-01T07:25:36;94493.41;;;9.31;65.98
65800;BME280;52544;48.116;11.660;2023-04-01T07:28:06;94506.06;;;9.27;65.92
65800;BME280;52544;48.116;11.660;2023-04-01T07:31:07;94485.53;;;9.21;66.36
65800;BME280;52544;48.116;11.660;2023-04-01T07:36:13;94482.09;;;9.39;65.90
65800;BME280;52544;48.116;11.660;2023-04-01T07:41:54;94486.38;;;9.58;64.71
65800;BME280;52544;48.116;11.660;2023-04-01T07:44:29;94493.84;;;9.80;65.16
65800;BME280;52544;48.116;11.660;2023-04-01T07:47:04;94477.94;;;9.98;63.66
65800;BME280;52544;48.116;11.660;2023-04-01T07:52:15;94501.75;;;9.80;63.21
65800;BME280;52544;48.116;11.660;2023-04-01T07:54:55;94494.47;;;9.74;63.53
65800;BME280;52544;48.116;11.660;2023-04-01T07:57:29;94507.13;;;9.70;64.10
65800;BME280;52544;48.116;11.660;2023-04-01T08:00:20;94498.53;;;9.68;63.83
65800;BME280;52544;48.116;11.660;2023-04-01T08:05:46;94500.50;;;9.66;63.81
65800;BME280;52544;48.116;11.660;2023-04-01T08:08:39;94484.66;;;9.66;63.77
65800;BME280;52544;48.116;11.660;2023-04-01T08:11:20;94486.38;;;9.75;63.40
65800;BME280;52544;48.116;11.660;2023-04-01T08:13:54;94499.28;;;9.79;64.01
65800;BME280;52544;48.116;11.660;2023-04-01T08:16:33;94498.91;;;9.73;64.58
65800;BME280;52544;48.116;11.660;2023-04-01T08:21:35;94496.81;;;9.77;63.38
65800;BME280;52544;48.116;11.660;2023-04-01T08:24:41;94502.81;;;9.87;63.30
65800;BME280;52544;48.116;11.660;2023-04-01T08:32:39;94496.91;;;10.11;60.63
65800;BME280;52544;48.116;11.660;2023-04-01T08:35:31;94491.91;;;10.26;60.69
65800;BME280;52544;48.116;11.660;2023-04-01T08:38:11;94481.06;;;10.37;60.38
65800;BME280;52544;48.116;11.660;2023-04-01T08:51:43;94462.06;;;11.18;57.42
65800;BME280;52544;48.116;11.660;2023-04-01T08:54:42;94463.03;;;11.25;56.57
65800;BME280;52544;48.116;11.660;2023-04-01T08:57:19;94468.00;;;11.20;56.93
65800;BME280;52544;48.116;11.660;2023-04-01T09:08:36;94478.47;;;11.38;56.28
65800;BME280;52544;48.116;11.660;2023-04-01T09:19:31;94462.13;;;11.43;55.07
65800;BME280;52544;48.116;11.660;2023-04-01T09:22:10;94471.00;;;11.34;55.09
65800;BME280;52544;48.116;11.660;2023-04-01T09:27:44;94452.84;;;11.80;53.70
65800;BME280;52544;48.116;11.660;2023-04-01T09:33:09;94460.78;;;11.63;53.48
65800;BME280;52544;48.116;11.660;2023-04-01T09:35:55;94461.28;;;11.50;53.44
65800;BME280;52544;48.116;11.660;2023-04-01T09:38:30;94442.25;;;11.39;54.17
65800;BME280;52544;48.116;11.660;2023-04-01T09:40:57;94435.63;;;11.35;53.92
65800;BME280;52544;48.116;11.660;2023-04-01T10:01:58;94427.84;;;11.82;53.95
65800;BME280;52544;48.116;11.660;2023-04-01T10:07:54;94416.75;;;11.95;52.70
65800;BME280;52544;48.116;11.660;2023-04-01T10:10:47;94412.94;;;11.97;52.94
65800;BME280;52544;48.116;11.660;2023-04-01T10:19:31;94417.56;;;12.04;53.65
65800;BME280;52544;48.116;11.660;2023-04-01T10:22:37;94408.94;;;12.01;52.28
65800;BME280;52544;48.116;11.660;2023-04-01T10:42:25;94408.25;;;12.24;51.74
65800;BME280;52544;48.116;11.660;2023-04-01T10:48:09;94413.59;;;12.16;51.50
65800;BME280;52544;48.116;11.660;2023-04-01T11:11:24;94429.81;;;11.31;56.96
65800;BME280;52544;48.116;11.660;2023-04-01T11:14:10;94438.09;;;11.36;58.37
65800;BME280;52544;48.116;11.660;2023-04-01T11:31:01;94472.91;;;10.57;62.52
65800;BME280;52544;48.116;11.660;2023-04-01T11:34:31;94451.50;;;10.76;67.88
65800;BME280;52544;48.116;11.660;2023-04-01T11:39:42;94456.03;;;10.92;63.42
65800;BME280;52544;48.116;11.660;2023-04-01T11:45:16;94463.56;;;10.79;64.16
65800;BME280;52544;48.116;11.660;2023-04-01T11:58:53;94498.75;;;10.37;69.78
65800;BME280;52544;48.116;11.660;2023-04-01T12:01:54;94514.63;;;10.37;74.23
65800;BME280;52544;48.116;11.660;2023-04-01T12:04:34;94509.44;;;10.09;77.76
65800;BME280;52544;48.116;11.660;2023-04-01T12:10:01;94499.59;;;9.75;80.80
65800;BME280;52544;48.116;11.660;2023-04-01T12:18:05;94502.69;;;9.35;82.10
65800;BME280;52544;48.116;11.660;2023-04-01T12:20:49;94490.78;;;9.31;81.56
65800;BME280;52544;48.116;11.660;2023-04-01T12:26:45;94500.25;;;9.24;84.62
65800;BME280;52544;48.116;11.660;2023-04-01T12:32:02;94507.06;;;8.99;85.36
65800;BME280;52544;48.116;11.660;2023-04-01T12:45:33;94494.59;;;8.91;89.95
65800;BME280;52544;48.116;11.660;2023-04-01T13:08:23;94505.34;;;8.52;91.33
65800;BME280;52544;48.116;11.660;2023-04-01T13:10:57;94497.16;;;8.56;89.94
65800;BME280;52544;48.116;11.660;2023-04-01T13:13:54;94507.94;;;8.62;90.86
65800;BME280;52544;48.116;11.660;2023-04-01T13:17:01;94503.94;;;8.58;90.03
65800;BME280;52544;48.116;11.660;2023-04-01T13:19:33;94507.00;;;8.54;91.76
65800;BME280;52544;48.116;11.660;2023-04-01T13:22:07;94512.53;;;8.60;90.24
65800;BME280;52544;48.116;11.660;2023-04-01T13:27:30;94515.56;;;8.65;88.04
65800;BME280;52544;48.116;11.660;2023-04-01T13:30:21;94517.66;;;8.62;87.81
65800;BME280;52544;48.116;11.660;2023-04-01T13:35:41;94514.50;;;8.48;87.38
65800;BME280;52544;48.116;11.660;2023-04-01T13:38:20;94516.44;;;8.56;86.59
65800;BME280;52544;48.116;11.660;2023-04-01T13:44:11;94524.19;;;8.58;86.87
65800;BME280;52544;48.116;11.660;2023-04-01T13:52:30;94522.41;;;8.58;87.68
65800;BME280;52544;48.116;11.660;2023-04-01T14:00:41;94528.47;;;8.68;87.57
65800;BME280;52544;48.116;11.660;2023-04-01T14:06:09;94522.75;;;8.73;88.27
65800;BME280;52544;48.116;11.660;2023-04-01T14:22:22;94515.44;;;8.94;87.86
65800;BME280;52544;48.116;11.660;2023-04-01T14:33:16;94514.19;;;8.61;92.20
65800;BME280;52544;48.116;11.660;2023-04-01T14:42:03;94517.53;;;8.91;88.96
65800;BME280;52544;48.116;11.660;2023-04-01T14:49:46;94516.63;;;9.00;89.88
65800;BME280;52544;48.116;11.660;2023-04-01T14:52:15;94522.63;;;9.02;92.02
65800;BME280;52544;48.116;11.660;2023-04-01T14:54:44;94527.91;;;9.02;92.48
65800;BME280;52544;48.116;11.660;2023-04-01T15:00:13;94523.44;;;9.02;92.60
65800;BME280;52544;48.116;11.660;2023-04-01T15:02:58;94537.97;;;8.89;93.39
65800;BME280;52544;48.116;11.660;2023-04-01T15:17:19;94523.91;;;9.16;88.64
65800;BME280;52544;48.116;11.660;2023-04-01T15:28:50;94544.28;;;8.96;86.03
65800;BME280;52544;48.116;11.660;2023-04-01T15:36:51;94531.53;;;9.01;85.45
65800;BME280;52544;48.116;11.660;2023-04-01T15:45:11;94535.69;;;9.21;82.46
65800;BME280;52544;48.116;11.660;2023-04-01T16:01:56;94554.06;;;9.41;77.86
65800;BME280;52544;48.116;11.660;2023-04-01T16:10:38;94543.31;;;9.70;73.60
65800;BME280;52544;48.116;11.660;2023-04-01T16:21:43;94550.69;;;9.66;72.04
65800;BME280;52544;48.116;11.660;2023-04-01T16:24:17;94551.81;;;9.64;72.52
65800;BME280;52544;48.116;11.660;2023-04-01T16:26:54;94548.66;;;9.60;72.86
65800;BME280;52544;48.116;11.660;2023-04-01T16:29:26;94550.31;;;9.61;73.65
65800;BME280;52544;48.116;11.660;2023-04-01T16:32:02;94551.34;;;9.68;72.20
65800;BME280;52544;48.116;11.660;2023-04-01T16:34:38;94542.47;;;9.69;70.94
65800;BME280;52544;48.116;11.660;2023-04-01T16:37:14;94546.97;;;9.59;72.25
65800;BME280;52544;48.116;11.660;2023-04-01T16:44:59;94545.13;;;9.51;71.13
65800;BME280;52544;48.116;11.660;2023-04-01T16:47:38;94545.53;;;9.47;71.32
65800;BME280;52544;48.116;11.660;2023-04-01T16:50:14;94554.59;;;9.44;72.24
65800;BME280;52544;48.116;11.660;2023-04-01T16:55:21;94569.91;;;9.41;70.18
65800;BME280;52544;48.116;11.660;2023-04-01T16:57:57;94561.97;;;9.41;69.38
65800;BME280;52544;48.116;11.660;2023-04-01T17:00:36;94572.16;;;9.36;70.12
65800;BME280;52544;48.116;11.660;2023-04-01T17:05:45;94569.81;;;9.33;68.60
65800;BME280;52544;48.116;11.660;2023-04-01T17:08:29;94579.38;;;9.34;67.47
65800;BME280;52544;48.116;11.660;2023-04-01T17:11:26;94579.72;;;9.31;67.34
65800;BME280;52544;48.116;11.660;2023-04-01T17:13:58;94574.72;;;9.27;67.25
65800;BME280;52544;48.116;11.660;2023-04-01T17:22:31;94590.16;;;9.22;69.45
65800;BME280;52544;48.116;11.660;2023-04-01T17:25:34;94594.22;;;9.17;69.55
65800;BME280;52544;48.116;11.660;2023-04-01T17:31:14;94596.84;;;9.17;69.64
65800;BME280;52544;48.116;11.660;2023-04-01T17:42:04;94598.97;;;9.13;69.12
65800;BME280;52544;48.116;11.660;2023-04-01T17:44:38;94608.34;;;9.25;68.10
65800;BME280;52544;48.116;11.660;2023-04-01T17:52:36;94609.22;;;9.16;68.88
65800;BME280;52544;48.116;11.660;2023-04-01T17:58:16;94603.16;;;9.06;69.53
65800;BME280;52544;48.116;11.660;2023-04-01T18:03:55;94604.38;;;9.12;68.62
65800;BME280;52544;48.116;11.660;2023-04-01T18:22:41;94625.88;;;9.17;68.51
65800;BME280;52544;48.116;11.660;2023-04-01T18:25:43;94639.38;;;9.14;68.98
65800;BME280;52544;48.116;11.660;2023-04-01T18:28:36;94634.78;;;9.16;71.00
65800;BME280;52544;48.116;11.660;2023-04-01T18:31:13;94643.19;;;9.01;74.07
65800;BME280;52544;48.116;11.660;2023-04-01T18:33:45;94655.97;;;8.96;76.49
65800;BME280;52544;48.116;11.660;2023-04-01T18:36:38;94656.56;;;8.81;77.87
65800;BME280;52544;48.116;11.660;2023-04-01T18:39:17;94661.56;;;8.74;77.69
65800;BME280;52544;48.116;11.660;2023-04-01T18:44:52;94659.38;;;8.69;76.60
65800;BME280;52544;48.116;11.660;2023-04-01T18:50:33;94654.81;;;8.52;78.51
65800;BME280;52544;48.116;11.660;2023-04-01T18:56:29;94669.97;;;8.50;80.39
65800;BME280;52544;48.116;11.660;2023-04-01T18:59:27;94668.00;;;8.52;80.21
65800;BME280;52544;48.116;11.660;2023-04-01T19:02:32;94670.22;;;8.47;80.90
65800;BME280;52544;48.116;11.660;2023-04-01T19:05:12;94669.41;;;8.46;80.53
65800;BME280;52544;48.116;11.660;2023-04-01T19:07:49;94668.56;;;8.46;81.44
65800;BME280;52544;48.116;11.660;2023-04-01T19:19:03;94687.97;;;8.35;82.67
65800;BME280;52544;48.116;11.660;2023-04-01T19:21:37;94686.06;;;8.37;82.89
65800;BME280;52544;48.116;11.660;2023-04-01T19:26:48;94690.22;;;8.40;82.65
65800;BME280;52544;48.116;11.660;2023-04-01T19:32:16;94684.34;;;8.36;83.00
65800;BME280;52544;48.116;11.660;2023-04-01T19:37:57;94685.47;;;8.34;82.54
65800;BME280;52544;48.116;11.660;2023-04-01T19:46:14;94706.19;;;8.38;81.20
65800;BME280;52544;48.116;11.660;2023-04-01T19:51:23;94710.03;;;8.34;81.40
65800;BME280;52544;48.116;11.660;2023-04-01T19:54:14;94717.94;;;8.34;81.07
65800;BME280;52544;48.116;11.660;2023-04-01T19:56:53;94717.09;;;8.24;81.56
65800;BME280;52544;48.116;11.660;2023-04-01T19:59:34;94721.25;;;8.36;80.69
65800;BME280;52544;48.116;11.660;2023-04-01T20:04:41;94710.97;;;8.23;81.40
65800;BME280;52544;48.116;11.660;2023-04-01T20:10:22;94725.13;;;8.22;80.53
65800;BME280;52544;48.116;11.660;2023-04-01T20:15:57;94732.06;;;8.23;80.40
65800;BME280;52544;48.116;11.660;2023-04-01T20:18:32;94728.91;;;8.20;80.56
65800;BME280;52544;48.116;11.660;2023-04-01T20:21:03;94725.00;;;8.14;80.65
65800;BME280;52544;48.116;11.660;2023-04-01T20:23:40;94742.34;;;8.17;80.52
65800;BME280;52544;48.116;11.660;2023-04-01T20:26:13;94739.41;;;8.10;80.95
65800;BME280;52544;48.116;11.660;2023-04-01T20:29:02;94726.63;;;8.06;81.49
65800;BME280;52544;48.116;11.660;2023-04-01T20:31:42;94744.81;;;7.99;81.65
65800;BME280;52544;48.116;11.660;2023-04-01T20:34:46;94742.03;;;8.10;81.06
65800;BME280;52544;48.116;11.660;2023-04-01T20:37:38;94745.34;;;8.02;81.49
65800;BME280;52544;48.116;11.660;2023-04-01T20:45:35;94743.09;;;7.88;82.65
65800;BME280;52544;48.116;11.660;2023-04-01T20:51:03;94749.50;;;7.95;82.11
65800;BME280;52544;48.116;11.660;2023-04-01T21:01:46;94751.16;;;7.87;82.26
65800;BME280;52544;48.116;11.660;2023-04-01T21:04:37;94754.75;;;7.86;83.15
65800;BME280;52544;48.116;11.660;2023-04-01T21:18:46;94752.97;;;7.86;82.66
65800;BME280;52544;48.116;11.660;2023-04-01T21:26:20;94758.78;;;7.90;82.37
65800;BME280;52544;48.116;11.660;2023-04-01T21:31:27;94764.66;;;8.03;81.43
65800;BME280;52544;48.116;11.660;2023-04-01T21:45:24;94780.31;;;7.95;81.47
65800;BME280;52544;48.116;11.660;2023-04-01T21:48:19;94776.69;;;7.96;81.30
65800;BME280;52544;48.116;11.660;2023-04-01T21:54:21;94791.84;;;8.04;81.31
65800;BME280;52544;48.116;11.660;2023-04-01T22:05:36;94794.88;;;7.99;81.08
65800;BME280;52544;48.116;11.660;2023-04-01T22:11:12;94802.22;;;7.95;81.68
65800;BME280;52544;48.116;11.660;2023-04-01T22:14:01;94803.72;;;7.98;81.33